Houghton County Memorial Airport
KCMX : now visible

Airfield :











YOU CAN JOIN US ON...

 
LOGIN :

Register | Disclaimer

   EN    FR    IT 

 









Legend :    VFR   Marginal VFR   IFR   Intensive IFR   Very Intensive IFR
Visi :
Ceiling :
>= 8 km
>= 3000ft
5 to 8 km
1000 to 3000 ft
1500m to 5 km
500 to 1000 ft
800 to 1500m
200 to 500 ft
< 800m
< 200 ft
Symbols :   Thunderstorms  Fog  Heavy snow  Heavy precipitations  Wind > 20 kt






- Airport Elevation : 1095 ft
- IATA code : CMX


KCMX - Houghton County Memorial

CURRENT METAR :
  • 222353Z AUTO 26004KT 9SM -SN OVC017 M12/M16 A3011 RMK AO2 UPE17SNB17 SLP221 P0000 60000 T11171156 11117 21139 51012 $

EXPIRED METARs :
  • 222253Z AUTO 30007KT 10SM UP BKN018 OVC110 M12/M16 A3010 RMK AO2 UPB05SNB24E36 SLP218 P0000 T11171161 $
  • 222153Z AUTO 31011KT 10SM BKN017 M12/M17 A3009 RMK AO2 UPE05 SLP215 P0000 T11221172 $

TAF KCMX
Valid from the 23 at 00:00 until the 24 at 00:00 UTC


222338Z 2300/2324 29008KT 4SM -SHSN BR OVC020
FM230100 29008KT 3SM -SHSN BR OVC018
FM230200 28008KT 1 1/2SM -SHSN OVC016
TEMPO 2302/2306 1/2SM SHSN BKN008
FM231700 24007KT 2SM -SHSN BR BKN018
FM232000 24006KT P6SM -SHSN BKN020
FM232300 19005KT P6SM BKN035
KZMP FIR / North America



MET'MAP, your aeronautical weather chart ! - Copyright ORBIFLY December 2007 - Disclaimer

ORBIFLY MET'MAP TEAM :

Programming & Development : Alexandra Zaïnal
Concept & original design : Baudouin d'Aumeries
Assistance for programming : Marc-Olivier Méhu
Technical & hardware support : Manuel Goepfert

Contact : metmap@orbifly.com




SOURCES & CREDITS :

   NOAA       Earth
Advisory